sensor_id;sensor_type;location;lat;lon;timestamp;P1;durP1;ratioP1;P2;durP2;ratioP2
73850;SDS011;62190;51.548;5.688;2023-07-31T00:00:37;29.20;;;11.40;;
73850;SDS011;62190;51.548;5.688;2023-07-31T00:03:08;33.70;;;12.73;;
73850;SDS011;62190;51.548;5.688;2023-07-31T00:05:37;39.05;;;13.72;;
73850;SDS011;62190;51.548;5.688;2023-07-31T00:08:05;47.48;;;14.98;;
73850;SDS011;62190;51.548;5.688;2023-07-31T00:10:32;31.48;;;12.33;;
73850;SDS011;62190;51.548;5.688;2023-07-31T00:13:01;27.48;;;11.63;;
73850;SDS011;62190;51.548;5.688;2023-07-31T00:15:28;30.02;;;11.43;;
73850;SDS011;62190;51.548;5.688;2023-07-31T00:18:01;32.60;;;11.85;;
73850;SDS011;62190;51.548;5.688;2023-07-31T00:20:30;25.72;;;10.72;;
73850;SDS011;62190;51.548;5.688;2023-07-31T00:22:57;33.92;;;11.65;;
73850;SDS011;62190;51.548;5.688;2023-07-31T00:25:25;32.15;;;10.93;;
73850;SDS011;62190;51.548;5.688;2023-07-31T00:27:52;28.52;;;10.85;;
73850;SDS011;62190;51.548;5.688;2023-07-31T00:30:21;36.48;;;11.38;;
73850;SDS011;62190;51.548;5.688;2023-07-31T00:32:53;28.73;;;9.90;;
73850;SDS011;62190;51.548;5.688;2023-07-31T00:35:21;32.60;;;10.63;;
73850;SDS011;62190;51.548;5.688;2023-07-31T00:37:51;25.20;;;9.20;;
73850;SDS011;62190;51.548;5.688;2023-07-31T00:40:19;25.95;;;9.10;;
73850;SDS011;62190;51.548;5.688;2023-07-31T00:42:47;28.10;;;10.00;;
73850;SDS011;62190;51.548;5.688;2023-07-31T00:45:17;27.90;;;8.40;;
73850;SDS011;62190;51.548;5.688;2023-07-31T00:47:44;26.90;;;9.15;;
73850;SDS011;62190;51.548;5.688;2023-07-31T00:50:14;25.17;;;8.50;;
73850;SDS011;62190;51.548;5.688;2023-07-31T00:52:44;21.85;;;7.55;;
73850;SDS011;62190;51.548;5.688;2023-07-31T00:55:12;28.92;;;8.70;;
73850;SDS011;62190;51.548;5.688;2023-07-31T00:57:40;31.95;;;8.75;;
73850;SDS011;62190;51.548;5.688;2023-07-31T01:00:08;26.42;;;8.90;;
73850;SDS011;62190;51.548;5.688;2023-07-31T01:02:37;25.70;;;9.13;;
73850;SDS011;62190;51.548;5.688;2023-07-31T01:05:04;24.80;;;7.85;;
73850;SDS011;62190;51.548;5.688;2023-07-31T01:07:40;20.75;;;7.40;;
73850;SDS011;62190;51.548;5.688;2023-07-31T01:10:16;22.20;;;8.20;;
73850;SDS011;62190;51.548;5.688;2023-07-31T01:12:48;23.42;;;6.70;;
73850;SDS011;62190;51.548;5.688;2023-07-31T01:15:17;25.75;;;8.38;;
73850;SDS011;62190;51.548;5.688;2023-07-31T01:17:46;23.95;;;7.47;;
73850;SDS011;62190;51.548;5.688;2023-07-31T01:20:15;24.85;;;7.20;;
73850;SDS011;62190;51.548;5.688;2023-07-31T01:22:54;20.10;;;6.58;;
73850;SDS011;62190;51.548;5.688;2023-07-31T01:31:14;21.62;;;6.55;;
73850;SDS011;62190;51.548;5.688;2023-07-31T01:33:45;25.45;;;7.28;;
73850;SDS011;62190;51.548;5.688;2023-07-31T01:36:13;19.50;;;6.97;;
73850;SDS011;62190;51.548;5.688;2023-07-31T01:38:41;17.37;;;6.60;;
73850;SDS011;62190;51.548;5.688;2023-07-31T01:41:10;18.52;;;6.67;;
73850;SDS011;62190;51.548;5.688;2023-07-31T01:43:39;16.00;;;6.40;;
73850;SDS011;62190;51.548;5.688;2023-07-31T01:46:06;16.07;;;5.45;;
73850;SDS011;62190;51.548;5.688;2023-07-31T01:48:35;22.42;;;7.05;;
73850;SDS011;62190;51.548;5.688;2023-07-31T01:51:07;18.12;;;5.83;;
73850;SDS011;62190;51.548;5.688;2023-07-31T01:53:35;17.48;;;5.92;;
73850;SDS011;62190;51.548;5.688;2023-07-31T01:56:03;16.82;;;5.58;;
73850;SDS011;62190;51.548;5.688;2023-07-31T01:58:30;19.52;;;5.42;;
73850;SDS011;62190;51.548;5.688;2023-07-31T02:00:59;21.45;;;5.92;;
73850;SDS011;62190;51.548;5.688;2023-07-31T02:03:27;15.05;;;5.92;;
73850;SDS011;62190;51.548;5.688;2023-07-31T02:05:55;15.60;;;5.78;;
73850;SDS011;62190;51.548;5.688;2023-07-31T02:08:25;23.18;;;6.85;;
73850;SDS011;62190;51.548;5.688;2023-07-31T02:10:53;18.45;;;6.55;;
73850;SDS011;62190;51.548;5.688;2023-07-31T02:13:24;20.77;;;6.42;;
73850;SDS011;62190;51.548;5.688;2023-07-31T02:15:51;21.07;;;6.75;;
73850;SDS011;62190;51.548;5.688;2023-07-31T02:18:20;20.25;;;6.55;;
73850;SDS011;62190;51.548;5.688;2023-07-31T02:20:51;20.57;;;6.78;;
73850;SDS011;62190;51.548;5.688;2023-07-31T02:23:18;22.80;;;6.25;;
73850;SDS011;62190;51.548;5.688;2023-07-31T02:25:46;23.60;;;6.75;;
73850;SDS011;62190;51.548;5.688;2023-07-31T02:28:17;16.80;;;6.28;;
73850;SDS011;62190;51.548;5.688;2023-07-31T02:30:45;17.85;;;5.53;;
73850;SDS011;62190;51.548;5.688;2023-07-31T02:33:12;19.65;;;6.37;;
73850;SDS011;62190;51.548;5.688;2023-07-31T02:35:41;16.60;;;6.28;;
73850;SDS011;62190;51.548;5.688;2023-07-31T02:38:08;20.45;;;6.37;;
73850;SDS011;62190;51.548;5.688;2023-07-31T02:40:36;17.17;;;7.00;;
73850;SDS011;62190;51.548;5.688;2023-07-31T02:43:03;17.50;;;7.22;;
73850;SDS011;62190;51.548;5.688;2023-07-31T02:45:32;19.20;;;6.80;;
73850;SDS011;62190;51.548;5.688;2023-07-31T02:48:01;20.60;;;7.20;;
73850;SDS011;62190;51.548;5.688;2023-07-31T02:50:28;19.73;;;5.47;;
73850;SDS011;62190;51.548;5.688;2023-07-31T02:52:57;17.80;;;6.47;;
73850;SDS011;62190;51.548;5.688;2023-07-31T02:55:25;18.12;;;6.50;;
73850;SDS011;62190;51.548;5.688;2023-07-31T02:57:52;20.50;;;6.55;;
73850;SDS011;62190;51.548;5.688;2023-07-31T03:00:19;18.35;;;6.67;;
73850;SDS011;62190;51.548;5.688;2023-07-31T03:02:48;24.05;;;6.92;;
73850;SDS011;62190;51.548;5.688;2023-07-31T03:05:17;21.20;;;6.70;;
73850;SDS011;62190;51.548;5.688;2023-07-31T03:07:45;22.85;;;6.83;;
73850;SDS011;62190;51.548;5.688;2023-07-31T03:10:12;19.95;;;6.28;;
73850;SDS011;62190;51.548;5.688;2023-07-31T03:12:41;19.10;;;6.10;;
73850;SDS011;62190;51.548;5.688;2023-07-31T03:15:08;22.07;;;6.83;;
73850;SDS011;62190;51.548;5.688;2023-07-31T03:17:36;18.73;;;6.35;;
73850;SDS011;62190;51.548;5.688;2023-07-31T03:20:04;19.73;;;7.25;;
73850;SDS011;62190;51.548;5.688;2023-07-31T03:22:33;16.73;;;6.92;;
73850;SDS011;62190;51.548;5.688;2023-07-31T03:25:02;17.40;;;6.60;;
73850;SDS011;62190;51.548;5.688;2023-07-31T03:27:30;15.68;;;6.03;;
73850;SDS011;62190;51.548;5.688;2023-07-31T03:29:59;25.40;;;6.78;;
73850;SDS011;62190;51.548;5.688;2023-07-31T03:32:26;25.32;;;6.35;;
73850;SDS011;62190;51.548;5.688;2023-07-31T03:34:55;18.62;;;6.25;;
73850;SDS011;62190;51.548;5.688;2023-07-31T03:37:25;16.55;;;6.12;;
73850;SDS011;62190;51.548;5.688;2023-07-31T03:39:54;17.80;;;6.97;;
73850;SDS011;62190;51.548;5.688;2023-07-31T03:42:22;20.08;;;6.67;;
73850;SDS011;62190;51.548;5.688;2023-07-31T03:44:51;20.62;;;6.10;;
73850;SDS011;62190;51.548;5.688;2023-07-31T03:47:18;17.90;;;6.58;;
73850;SDS011;62190;51.548;5.688;2023-07-31T03:49:45;22.95;;;7.40;;
73850;SDS011;62190;51.548;5.688;2023-07-31T03:52:14;20.30;;;7.78;;
73850;SDS011;62190;51.548;5.688;2023-07-31T03:54:41;21.05;;;7.03;;
73850;SDS011;62190;51.548;5.688;2023-07-31T03:57:12;26.65;;;7.37;;
73850;SDS011;62190;51.548;5.688;2023-07-31T03:59:38;15.80;;;6.33;;
73850;SDS011;62190;51.548;5.688;2023-07-31T04:02:07;23.07;;;7.12;;
73850;SDS011;62190;51.548;5.688;2023-07-31T04:04:35;17.52;;;5.87;;
73850;SDS011;62190;51.548;5.688;2023-07-31T04:07:02;16.35;;;5.83;;
73850;SDS011;62190;51.548;5.688;2023-07-31T04:09:30;23.05;;;6.95;;
73850;SDS011;62190;51.548;5.688;2023-07-31T04:11:57;14.45;;;5.72;;
73850;SDS011;62190;51.548;5.688;2023-07-31T04:14:24;19.40;;;5.62;;
73850;SDS011;62190;51.548;5.688;2023-07-31T04:16:53;18.17;;;6.50;;
73850;SDS011;62190;51.548;5.688;2023-07-31T04:19:20;18.00;;;5.85;;
73850;SDS011;62190;51.548;5.688;2023-07-31T04:21:48;20.08;;;6.80;;
73850;SDS011;62190;51.548;5.688;2023-07-31T04:24:15;18.35;;;5.85;;
73850;SDS011;62190;51.548;5.688;2023-07-31T04:26:44;16.73;;;5.83;;
73850;SDS011;62190;51.548;5.688;2023-07-31T04:29:11;15.15;;;5.87;;
73850;SDS011;62190;51.548;5.688;2023-07-31T04:31:38;21.65;;;6.42;;
73850;SDS011;62190;51.548;5.688;2023-07-31T04:34:06;19.52;;;5.90;;
73850;SDS011;62190;51.548;5.688;2023-07-31T04:36:33;18.98;;;6.33;;
73850;SDS011;62190;51.548;5.688;2023-07-31T04:39:03;16.20;;;5.50;;
73850;SDS011;62190;51.548;5.688;2023-07-31T04:41:30;15.58;;;6.42;;
73850;SDS011;62190;51.548;5.688;2023-07-31T04:43:57;16.10;;;6.22;;
73850;SDS011;62190;51.548;5.688;2023-07-31T04:46:25;15.23;;;6.62;;
73850;SDS011;62190;51.548;5.688;2023-07-31T04:48:52;14.23;;;5.92;;
73850;SDS011;62190;51.548;5.688;2023-07-31T04:51:20;18.60;;;5.78;;
73850;SDS011;62190;51.548;5.688;2023-07-31T04:53:48;16.67;;;5.53;;
73850;SDS011;62190;51.548;5.688;2023-07-31T04:56:16;14.98;;;5.80;;
73850;SDS011;62190;51.548;5.688;2023-07-31T04:58:43;15.38;;;5.80;;
73850;SDS011;62190;51.548;5.688;2023-07-31T05:01:10;14.40;;;5.78;;
73850;SDS011;62190;51.548;5.688;2023-07-31T05:03:39;15.63;;;5.70;;
73850;SDS011;62190;51.548;5.688;2023-07-31T05:06:07;16.70;;;6.33;;
73850;SDS011;62190;51.548;5.688;2023-07-31T05:08:34;17.60;;;6.03;;
73850;SDS011;62190;51.548;5.688;2023-07-31T05:11:02;13.65;;;5.95;;
73850;SDS011;62190;51.548;5.688;2023-07-31T05:13:29;13.65;;;6.25;;
73850;SDS011;62190;51.548;5.688;2023-07-31T05:15:56;15.88;;;5.87;;
73850;SDS011;62190;51.548;5.688;2023-07-31T05:18:24;14.05;;;5.50;;
73850;SDS011;62190;51.548;5.688;2023-07-31T05:20:51;14.68;;;6.25;;
73850;SDS011;62190;51.548;5.688;2023-07-31T05:23:18;12.88;;;5.85;;
73850;SDS011;62190;51.548;5.688;2023-07-31T05:25:47;17.73;;;6.12;;
73850;SDS011;62190;51.548;5.688;2023-07-31T05:28:15;13.60;;;6.22;;
73850;SDS011;62190;51.548;5.688;2023-07-31T05:30:42;16.73;;;6.87;;
73850;SDS011;62190;51.548;5.688;2023-07-31T05:33:10;16.80;;;6.85;;
73850;SDS011;62190;51.548;5.688;2023-07-31T05:35:37;20.00;;;7.65;;
73850;SDS011;62190;51.548;5.688;2023-07-31T05:38:04;17.42;;;6.53;;
73850;SDS011;62190;51.548;5.688;2023-07-31T05:40:33;15.40;;;7.33;;
73850;SDS011;62190;51.548;5.688;2023-07-31T05:43:00;13.22;;;6.65;;
73850;SDS011;62190;51.548;5.688;2023-07-31T05:45:28;16.65;;;6.40;;
73850;SDS011;62190;51.548;5.688;2023-07-31T05:47:55;13.25;;;6.25;;
73850;SDS011;62190;51.548;5.688;2023-07-31T05:50:22;13.95;;;6.20;;
73850;SDS011;62190;51.548;5.688;2023-07-31T05:52:50;13.58;;;5.90;;
73850;SDS011;62190;51.548;5.688;2023-07-31T05:55:17;12.43;;;5.28;;
73850;SDS011;62190;51.548;5.688;2023-07-31T05:57:46;12.65;;;6.00;;
73850;SDS011;62190;51.548;5.688;2023-07-31T06:00:13;11.35;;;5.70;;
73850;SDS011;62190;51.548;5.688;2023-07-31T06:02:41;14.47;;;6.20;;
73850;SDS011;62190;51.548;5.688;2023-07-31T06:05:08;15.03;;;6.30;;
73850;SDS011;62190;51.548;5.688;2023-07-31T06:07:36;19.73;;;6.80;;
73850;SDS011;62190;51.548;5.688;2023-07-31T06:10:03;17.90;;;6.95;;
73850;SDS011;62190;51.548;5.688;2023-07-31T06:12:32;12.45;;;6.10;;
73850;SDS011;62190;51.548;5.688;2023-07-31T06:14:59;16.67;;;6.22;;
73850;SDS011;62190;51.548;5.688;2023-07-31T06:17:26;22.67;;;6.87;;
73850;SDS011;62190;51.548;5.688;2023-07-31T06:19:54;17.57;;;7.00;;
73850;SDS011;62190;51.548;5.688;2023-07-31T06:22:22;13.22;;;6.42;;
73850;SDS011;62190;51.548;5.688;2023-07-31T06:24:50;12.85;;;6.78;;
73850;SDS011;62190;51.548;5.688;2023-07-31T06:27:17;11.97;;;6.33;;
73850;SDS011;62190;51.548;5.688;2023-07-31T06:29:44;9.10;;;5.30;;
73850;SDS011;62190;51.548;5.688;2023-07-31T06:32:12;13.08;;;6.37;;
73850;SDS011;62190;51.548;5.688;2023-07-31T06:34:41;12.00;;;6.05;;
73850;SDS011;62190;51.548;5.688;2023-07-31T06:37:10;11.83;;;6.53;;
73850;SDS011;62190;51.548;5.688;2023-07-31T06:39:37;9.55;;;5.55;;
73850;SDS011;62190;51.548;5.688;2023-07-31T06:42:04;9.75;;;6.28;;
73850;SDS011;62190;51.548;5.688;2023-07-31T06:44:35;11.33;;;6.08;;
73850;SDS011;62190;51.548;5.688;2023-07-31T06:47:04;10.53;;;6.25;;
73850;SDS011;62190;51.548;5.688;2023-07-31T06:49:31;13.00;;;6.35;;
73850;SDS011;62190;51.548;5.688;2023-07-31T06:51:59;8.55;;;5.62;;
73850;SDS011;62190;51.548;5.688;2023-07-31T06:54:28;12.10;;;5.85;;
73850;SDS011;62190;51.548;5.688;2023-07-31T06:56:56;10.65;;;5.72;;
73850;SDS011;62190;51.548;5.688;2023-07-31T06:59:24;9.88;;;5.50;;
73850;SDS011;62190;51.548;5.688;2023-07-31T07:01:52;10.15;;;4.85;;
73850;SDS011;62190;51.548;5.688;2023-07-31T07:04:19;6.85;;;5.00;;
73850;SDS011;62190;51.548;5.688;2023-07-31T07:06:48;8.53;;;4.80;;
73850;SDS011;62190;51.548;5.688;2023-07-31T07:09:16;7.00;;;5.25;;
73850;SDS011;62190;51.548;5.688;2023-07-31T07:11:43;9.23;;;5.00;;
73850;SDS011;62190;51.548;5.688;2023-07-31T07:14:12;9.38;;;5.20;;
73850;SDS011;62190;51.548;5.688;2023-07-31T07:16:40;7.30;;;5.08;;
73850;SDS011;62190;51.548;5.688;2023-07-31T07:19:07;11.78;;;5.70;;
73850;SDS011;62190;51.548;5.688;2023-07-31T07:21:34;9.13;;;5.62;;
73850;SDS011;62190;51.548;5.688;2023-07-31T07:24:01;13.88;;;5.75;;
73850;SDS011;62190;51.548;5.688;2023-07-31T07:26:29;8.05;;;5.67;;
73850;SDS011;62190;51.548;5.688;2023-07-31T07:28:58;7.80;;;4.85;;
73850;SDS011;62190;51.548;5.688;2023-07-31T07:31:27;6.03;;;4.47;;
73850;SDS011;62190;51.548;5.688;2023-07-31T07:33:54;8.50;;;4.97;;
73850;SDS011;62190;51.548;5.688;2023-07-31T07:36:22;6.75;;;4.12;;
73850;SDS011;62190;51.548;5.688;2023-07-31T07:38:50;8.35;;;5.12;;
73850;SDS011;62190;51.548;5.688;2023-07-31T07:41:17;5.47;;;3.95;;
73850;SDS011;62190;51.548;5.688;2023-07-31T07:43:44;8.20;;;4.55;;
73850;SDS011;62190;51.548;5.688;2023-07-31T07:46:11;7.70;;;4.20;;
73850;SDS011;62190;51.548;5.688;2023-07-31T07:48:39;7.22;;;3.72;;
73850;SDS011;62190;51.548;5.688;2023-07-31T07:51:06;5.40;;;3.65;;
73850;SDS011;62190;51.548;5.688;2023-07-31T07:53:33;7.05;;;3.98;;
73850;SDS011;62190;51.548;5.688;2023-07-31T07:56:02;8.50;;;4.78;;
73850;SDS011;62190;51.548;5.688;2023-07-31T07:58:30;7.60;;;4.78;;
73850;SDS011;62190;51.548;5.688;2023-07-31T08:00:57;7.78;;;4.37;;
73850;SDS011;62190;51.548;5.688;2023-07-31T08:03:24;7.00;;;4.58;;
73850;SDS011;62190;51.548;5.688;2023-07-31T08:05:52;4.92;;;4.12;;
73850;SDS011;62190;51.548;5.688;2023-07-31T08:08:21;7.17;;;4.58;;
73850;SDS011;62190;51.548;5.688;2023-07-31T08:10:48;7.95;;;5.42;;
73850;SDS011;62190;51.548;5.688;2023-07-31T08:13:15;8.40;;;4.92;;
73850;SDS011;62190;51.548;5.688;2023-07-31T08:15:43;10.35;;;5.40;;
73850;SDS011;62190;51.548;5.688;2023-07-31T08:18:11;9.63;;;6.25;;
73850;SDS011;62190;51.548;5.688;2023-07-31T08:20:38;11.40;;;6.03;;
73850;SDS011;62190;51.548;5.688;2023-07-31T08:23:06;8.90;;;5.75;;
73850;SDS011;62190;51.548;5.688;2023-07-31T08:25:36;11.93;;;6.70;;
73850;SDS011;62190;51.548;5.688;2023-07-31T08:28:04;12.10;;;6.67;;
73850;SDS011;62190;51.548;5.688;2023-07-31T08:30:32;9.70;;;6.50;;
73850;SDS011;62190;51.548;5.688;2023-07-31T08:33:00;12.85;;;6.10;;
73850;SDS011;62190;51.548;5.688;2023-07-31T08:35:28;10.85;;;6.28;;
73850;SDS011;62190;51.548;5.688;2023-07-31T08:37:56;11.20;;;6.08;;
73850;SDS011;62190;51.548;5.688;2023-07-31T08:40:23;9.68;;;5.33;;
73850;SDS011;62190;51.548;5.688;2023-07-31T08:42:52;8.70;;;5.35;;
73850;SDS011;62190;51.548;5.688;2023-07-31T08:45:20;8.95;;;5.47;;
73850;SDS011;62190;51.548;5.688;2023-07-31T08:47:52;10.48;;;5.72;;
73850;SDS011;62190;51.548;5.688;2023-07-31T08:50:17;10.13;;;5.78;;
73850;SDS011;62190;51.548;5.688;2023-07-31T08:52:46;10.05;;;6.00;;
73850;SDS011;62190;51.548;5.688;2023-07-31T08:55:14;7.62;;;4.87;;
73850;SDS011;62190;51.548;5.688;2023-07-31T08:57:42;6.85;;;5.03;;
73850;SDS011;62190;51.548;5.688;2023-07-31T09:00:10;8.85;;;5.92;;
73850;SDS011;62190;51.548;5.688;2023-07-31T09:02:38;8.50;;;4.87;;
73850;SDS011;62190;51.548;5.688;2023-07-31T09:05:11;8.60;;;5.03;;
73850;SDS011;62190;51.548;5.688;2023-07-31T09:07:38;8.20;;;4.47;;
73850;SDS011;62190;51.548;5.688;2023-07-31T09:10:06;9.00;;;5.33;;
73850;SDS011;62190;51.548;5.688;2023-07-31T09:12:34;9.53;;;6.05;;
73850;SDS011;62190;51.548;5.688;2023-07-31T09:15:02;12.78;;;6.40;;
73850;SDS011;62190;51.548;5.688;2023-07-31T09:17:33;8.00;;;5.55;;
73850;SDS011;62190;51.548;5.688;2023-07-31T09:20:12;9.20;;;5.53;;
73850;SDS011;62190;51.548;5.688;2023-07-31T09:22:47;9.83;;;5.87;;
73850;SDS011;62190;51.548;5.688;2023-07-31T09:27:48;11.95;;;6.22;;
73850;SDS011;62190;51.548;5.688;2023-07-31T09:30:29;15.93;;;6.83;;
73850;SDS011;62190;51.548;5.688;2023-07-31T09:33:03;9.80;;;5.22;;
73850;SDS011;62190;51.548;5.688;2023-07-31T09:35:37;9.65;;;6.10;;
73850;SDS011;62190;51.548;5.688;2023-07-31T09:38:07;11.30;;;5.78;;
73850;SDS011;62190;51.548;5.688;2023-07-31T09:40:39;11.70;;;5.67;;
73850;SDS011;62190;51.548;5.688;2023-07-31T09:43:08;10.03;;;4.90;;
73850;SDS011;62190;51.548;5.688;2023-07-31T09:45:45;6.85;;;4.30;;
73850;SDS011;62190;51.548;5.688;2023-07-31T09:48:10;10.60;;;5.58;;
73850;SDS011;62190;51.548;5.688;2023-07-31T09:50:39;8.63;;;4.90;;
73850;SDS011;62190;51.548;5.688;2023-07-31T09:53:07;7.22;;;4.75;;
73850;SDS011;62190;51.548;5.688;2023-07-31T09:55:36;12.43;;;5.35;;
73850;SDS011;62190;51.548;5.688;2023-07-31T09:58:05;10.30;;;5.30;;
73850;SDS011;62190;51.548;5.688;2023-07-31T10:00:34;10.23;;;5.03;;
73850;SDS011;62190;51.548;5.688;2023-07-31T10:03:03;13.03;;;5.20;;
73850;SDS011;62190;51.548;5.688;2023-07-31T10:05:34;8.15;;;4.92;;
73850;SDS011;62190;51.548;5.688;2023-07-31T10:08:15;9.60;;;5.53;;
73850;SDS011;62190;51.548;5.688;2023-07-31T10:10:43;6.00;;;3.90;;
73850;SDS011;62190;51.548;5.688;2023-07-31T10:13:11;8.13;;;4.62;;
73850;SDS011;62190;51.548;5.688;2023-07-31T10:15:39;9.03;;;4.78;;
73850;SDS011;62190;51.548;5.688;2023-07-31T10:18:08;10.60;;;5.33;;
73850;SDS011;62190;51.548;5.688;2023-07-31T10:20:36;7.97;;;4.53;;
73850;SDS011;62190;51.548;5.688;2023-07-31T10:23:03;10.28;;;4.42;;
73850;SDS011;62190;51.548;5.688;2023-07-31T10:25:31;8.18;;;4.33;;
73850;SDS011;62190;51.548;5.688;2023-07-31T10:27:59;9.28;;;4.72;;
73850;SDS011;62190;51.548;5.688;2023-07-31T10:30:27;9.83;;;4.35;;
73850;SDS011;62190;51.548;5.688;2023-07-31T10:32:55;5.67;;;4.00;;
73850;SDS011;62190;51.548;5.688;2023-07-31T10:35:24;6.90;;;3.90;;
73850;SDS011;62190;51.548;5.688;2023-07-31T10:37:51;7.15;;;4.33;;
73850;SDS011;62190;51.548;5.688;2023-07-31T10:40:24;7.67;;;4.00;;
73850;SDS011;62190;51.548;5.688;2023-07-31T10:42:57;5.25;;;3.47;;
73850;SDS011;62190;51.548;5.688;2023-07-31T10:45:23;4.28;;;3.15;;
73850;SDS011;62190;51.548;5.688;2023-07-31T10:48:06;7.42;;;3.55;;
73850;SDS011;62190;51.548;5.688;2023-07-31T10:50:50;9.98;;;3.65;;
73850;SDS011;62190;51.548;5.688;2023-07-31T10:56:00;6.42;;;3.52;;
73850;SDS011;62190;51.548;5.688;2023-07-31T10:58:31;5.25;;;3.15;;
73850;SDS011;62190;51.548;5.688;2023-07-31T11:01:00;10.55;;;3.30;;
73850;SDS011;62190;51.548;5.688;2023-07-31T11:03:45;5.60;;;3.05;;
73850;SDS011;62190;51.548;5.688;2023-07-31T11:06:15;8.08;;;3.37;;
73850;SDS011;62190;51.548;5.688;2023-07-31T11:08:44;7.08;;;3.35;;
73850;SDS011;62190;51.548;5.688;2023-07-31T11:11:13;6.47;;;2.92;;
73850;SDS011;62190;51.548;5.688;2023-07-31T11:13:44;4.75;;;2.70;;
73850;SDS011;62190;51.548;5.688;2023-07-31T11:16:20;6.20;;;2.67;;
73850;SDS011;62190;51.548;5.688;2023-07-31T11:18:50;5.08;;;2.72;;
73850;SDS011;62190;51.548;5.688;2023-07-31T11:21:22;6.53;;;2.58;;
73850;SDS011;62190;51.548;5.688;2023-07-31T11:23:51;6.58;;;3.02;;
73850;SDS011;62190;51.548;5.688;2023-07-31T11:26:20;5.58;;;2.75;;
73850;SDS011;62190;51.548;5.688;2023-07-31T11:28:48;6.12;;;3.20;;
73850;SDS011;62190;51.548;5.688;2023-07-31T11:31:17;3.95;;;2.40;;
73850;SDS011;62190;51.548;5.688;2023-07-31T11:33:46;6.00;;;2.98;;
73850;SDS011;62190;51.548;5.688;2023-07-31T11:36:15;5.53;;;2.70;;
73850;SDS011;62190;51.548;5.688;2023-07-31T11:38:43;5.22;;;3.12;;
73850;SDS011;62190;51.548;5.688;2023-07-31T11:41:13;5.20;;;2.70;;
73850;SDS011;62190;51.548;5.688;2023-07-31T11:43:41;5.70;;;2.80;;
73850;SDS011;62190;51.548;5.688;2023-07-31T11:46:09;7.45;;;2.70;;
73850;SDS011;62190;51.548;5.688;2023-07-31T11:48:37;5.25;;;2.60;;
73850;SDS011;62190;51.548;5.688;2023-07-31T11:51:05;6.05;;;2.47;;
73850;SDS011;62190;51.548;5.688;2023-07-31T11:53:41;3.87;;;2.10;;
73850;SDS011;62190;51.548;5.688;2023-07-31T11:56:13;4.75;;;2.20;;
73850;SDS011;62190;51.548;5.688;2023-07-31T11:58:42;5.50;;;2.30;;
73850;SDS011;62190;51.548;5.688;2023-07-31T12:01:15;5.17;;;2.47;;
73850;SDS011;62190;51.548;5.688;2023-07-31T12:03:45;5.65;;;2.08;;
73850;SDS011;62190;51.548;5.688;2023-07-31T12:06:13;5.12;;;1.72;;
73850;SDS011;62190;51.548;5.688;2023-07-31T12:08:40;3.25;;;1.72;;
73850;SDS011;62190;51.548;5.688;2023-07-31T12:11:08;4.80;;;1.75;;
73850;SDS011;62190;51.548;5.688;2023-07-31T12:13:36;6.92;;;2.12;;
73850;SDS011;62190;51.548;5.688;2023-07-31T12:16:04;5.95;;;2.00;;
73850;SDS011;62190;51.548;5.688;2023-07-31T12:18:35;3.77;;;2.05;;
73850;SDS011;62190;51.548;5.688;2023-07-31T12:21:04;5.45;;;2.17;;
73850;SDS011;62190;51.548;5.688;2023-07-31T12:23:34;3.90;;;1.95;;
73850;SDS011;62190;51.548;5.688;2023-07-31T12:26:10;5.60;;;2.65;;
73850;SDS011;62190;51.548;5.688;2023-07-31T12:28:40;5.37;;;2.15;;
73850;SDS011;62190;51.548;5.688;2023-07-31T12:31:12;7.90;;;2.35;;
73850;SDS011;62190;51.548;5.688;2023-07-31T12:33:44;4.53;;;2.55;;
73850;SDS011;62190;51.548;5.688;2023-07-31T12:36:15;5.33;;;2.50;;
73850;SDS011;62190;51.548;5.688;2023-07-31T12:38:43;3.98;;;2.35;;
73850;SDS011;62190;51.548;5.688;2023-07-31T12:41:12;5.72;;;2.70;;
73850;SDS011;62190;51.548;5.688;2023-07-31T12:43:40;4.30;;;2.80;;
73850;SDS011;62190;51.548;5.688;2023-07-31T12:46:08;4.75;;;2.75;;
73850;SDS011;62190;51.548;5.688;2023-07-31T12:48:36;6.33;;;3.05;;
73850;SDS011;62190;51.548;5.688;2023-07-31T12:51:04;5.75;;;2.92;;
73850;SDS011;62190;51.548;5.688;2023-07-31T12:53:33;6.28;;;3.60;;
73850;SDS011;62190;51.548;5.688;2023-07-31T12:56:01;6.00;;;3.65;;
73850;SDS011;62190;51.548;5.688;2023-07-31T12:58:28;5.45;;;3.35;;
73850;SDS011;62190;51.548;5.688;2023-07-31T13:00:55;8.90;;;3.72;;
73850;SDS011;62190;51.548;5.688;2023-07-31T13:03:23;6.47;;;4.20;;
73850;SDS011;62190;51.548;5.688;2023-07-31T13:05:50;8.68;;;4.33;;
73850;SDS011;62190;51.548;5.688;2023-07-31T13:08:18;7.83;;;4.87;;
73850;SDS011;62190;51.548;5.688;2023-07-31T13:10:46;9.13;;;3.92;;
73850;SDS011;62190;51.548;5.688;2023-07-31T13:13:15;6.92;;;4.45;;
73850;SDS011;62190;51.548;5.688;2023-07-31T13:15:43;7.58;;;4.67;;
73850;SDS011;62190;51.548;5.688;2023-07-31T13:18:13;11.85;;;6.03;;
73850;SDS011;62190;51.548;5.688;2023-07-31T13:20:40;7.42;;;4.80;;
73850;SDS011;62190;51.548;5.688;2023-07-31T13:23:09;8.45;;;4.95;;
73850;SDS011;62190;51.548;5.688;2023-07-31T13:25:36;10.30;;;4.35;;
73850;SDS011;62190;51.548;5.688;2023-07-31T13:28:03;11.50;;;5.28;;
73850;SDS011;62190;51.548;5.688;2023-07-31T13:30:31;11.22;;;4.90;;
73850;SDS011;62190;51.548;5.688;2023-07-31T13:32:58;7.30;;;3.72;;
73850;SDS011;62190;51.548;5.688;2023-07-31T13:35:25;7.62;;;4.72;;
73850;SDS011;62190;51.548;5.688;2023-07-31T13:37:53;9.05;;;4.62;;
73850;SDS011;62190;51.548;5.688;2023-07-31T13:40:20;9.55;;;4.85;;
73850;SDS011;62190;51.548;5.688;2023-07-31T13:42:49;7.33;;;4.17;;
73850;SDS011;62190;51.548;5.688;2023-07-31T13:45:17;8.10;;;4.03;;
73850;SDS011;62190;51.548;5.688;2023-07-31T13:47:44;7.58;;;3.65;;
73850;SDS011;62190;51.548;5.688;2023-07-31T13:50:11;8.95;;;4.10;;
73850;SDS011;62190;51.548;5.688;2023-07-31T13:52:41;9.98;;;4.50;;
73850;SDS011;62190;51.548;5.688;2023-07-31T13:55:10;9.68;;;4.45;;
73850;SDS011;62190;51.548;5.688;2023-07-31T13:57:37;7.85;;;4.58;;
73850;SDS011;62190;51.548;5.688;2023-07-31T14:00:05;10.53;;;5.20;;
73850;SDS011;62190;51.548;5.688;2023-07-31T14:02:33;10.38;;;5.20;;
73850;SDS011;62190;51.548;5.688;2023-07-31T14:05:01;9.55;;;5.25;;
73850;SDS011;62190;51.548;5.688;2023-07-31T14:07:28;11.83;;;5.72;;
73850;SDS011;62190;51.548;5.688;2023-07-31T14:09:56;11.70;;;5.67;;
73850;SDS011;62190;51.548;5.688;2023-07-31T14:12:23;12.58;;;5.83;;
73850;SDS011;62190;51.548;5.688;2023-07-31T14:14:50;12.70;;;6.28;;
73850;SDS011;62190;51.548;5.688;2023-07-31T14:17:18;13.20;;;6.15;;
73850;SDS011;62190;51.548;5.688;2023-07-31T14:19:47;13.72;;;6.42;;
73850;SDS011;62190;51.548;5.688;2023-07-31T14:22:26;14.33;;;7.05;;
73850;SDS011;62190;51.548;5.688;2023-07-31T14:24:52;14.55;;;6.35;;
73850;SDS011;62190;51.548;5.688;2023-07-31T14:27:19;12.65;;;6.10;;
73850;SDS011;62190;51.548;5.688;2023-07-31T14:29:47;11.97;;;6.60;;
73850;SDS011;62190;51.548;5.688;2023-07-31T14:32:14;11.80;;;6.40;;
73850;SDS011;62190;51.548;5.688;2023-07-31T14:34:41;13.45;;;7.25;;
73850;SDS011;62190;51.548;5.688;2023-07-31T14:37:09;11.68;;;6.17;;
73850;SDS011;62190;51.548;5.688;2023-07-31T14:39:36;10.38;;;6.62;;
73850;SDS011;62190;51.548;5.688;2023-07-31T14:42:04;15.83;;;7.35;;
73850;SDS011;62190;51.548;5.688;2023-07-31T14:44:31;19.05;;;8.00;;
73850;SDS011;62190;51.548;5.688;2023-07-31T14:46:58;14.40;;;7.22;;
73850;SDS011;62190;51.548;5.688;2023-07-31T14:49:26;11.22;;;6.65;;
73850;SDS011;62190;51.548;5.688;2023-07-31T14:51:54;13.30;;;6.58;;
73850;SDS011;62190;51.548;5.688;2023-07-31T14:54:21;14.63;;;7.28;;
73850;SDS011;62190;51.548;5.688;2023-07-31T14:56:52;12.07;;;5.62;;